createdAt,value
2019-04-19T00:00:15.190Z,5.20
2019-04-19T00:02:43.655Z,4.53
2019-04-19T00:05:11.151Z,4.70
2019-04-19T00:07:39.708Z,5.23
2019-04-19T00:10:21.578Z,4.93
2019-04-19T00:12:47.083Z,4.67
2019-04-19T00:15:07.530Z,5.00
2019-04-19T00:17:37.036Z,4.83
2019-04-19T00:20:27.174Z,5.70
2019-04-19T00:22:49.879Z,4.47
2019-04-19T00:25:05.175Z,4.90
2019-04-19T00:27:41.385Z,4.43
2019-04-19T00:30:16.743Z,5.40
2019-04-19T00:32:42.772Z,4.50
2019-04-19T00:34:59.640Z,5.27
2019-04-19T00:37:26.912Z,5.27
2019-04-19T00:40:18.217Z,5.00
2019-04-19T00:42:52.795Z,5.20
2019-04-19T00:45:38.273Z,5.03
2019-04-19T00:48:07.759Z,5.50
2019-04-19T00:50:35.233Z,4.70
2019-04-19T00:53:08.817Z,4.93
2019-04-19T00:55:36.655Z,4.70
2019-04-19T00:57:59.881Z,5.30
2019-04-19T01:00:26.007Z,5.30
2019-04-19T01:02:52.136Z,5.43
2019-04-19T01:05:20.126Z,5.00
2019-04-19T01:07:47.490Z,5.00
2019-04-19T01:10:26.754Z,4.87
2019-04-19T01:12:58.275Z,5.83
2019-04-19T01:15:24.445Z,4.83
2019-04-19T01:18:00.434Z,5.57
2019-04-19T01:20:13.554Z,5.57
2019-04-19T01:22:39.888Z,4.83
2019-04-19T01:25:11.733Z,5.10
2019-04-19T01:27:38.009Z,5.20
2019-04-19T01:30:06.530Z,4.93
2019-04-19T01:32:41.274Z,5.60
2019-04-19T01:35:09.141Z,5.30
2019-04-19T01:37:33.244Z,5.37
2019-04-19T01:40:15.877Z,5.07
2019-04-19T01:42:45.322Z,5.10
2019-04-19T01:45:13.476Z,4.97
2019-04-19T01:47:51.722Z,5.10
2019-04-19T01:50:38.270Z,4.50
2019-04-19T01:53:09.717Z,5.27
2019-04-19T01:55:25.123Z,5.00
2019-04-19T01:57:47.238Z,4.70
2019-04-19T02:00:25.239Z,4.90
2019-04-19T02:02:51.039Z,5.87
2019-04-19T02:05:16.694Z,5.23
2019-04-19T02:07:42.515Z,4.80
2019-04-19T02:10:41.946Z,4.80
2019-04-19T02:13:11.396Z,5.50
2019-04-19T02:15:33.743Z,5.30
2019-04-19T02:17:55.892Z,5.70
2019-04-19T02:20:27.001Z,5.60
2019-04-19T02:22:58.367Z,4.80
2019-04-19T02:25:26.562Z,5.00
2019-04-19T02:27:51.883Z,5.20
2019-04-19T02:30:34.240Z,5.30
2019-04-19T02:33:15.349Z,5.20
2019-04-19T02:35:42.339Z,5.40
2019-04-19T02:38:11.500Z,5.37
2019-04-19T02:40:52.845Z,5.40
2019-04-19T02:43:19.378Z,5.30
2019-04-19T02:45:45.425Z,4.90
2019-04-19T02:48:13.821Z,5.57
2019-04-19T02:51:02.111Z,5.43
2019-04-19T02:53:08.782Z,5.60
2019-04-19T02:55:35.482Z,5.67
2019-04-19T02:58:06.642Z,5.17
2019-04-19T03:07:55.430Z,4.97
2019-04-19T03:10:26.094Z,5.20
2019-04-19T03:13:09.587Z,5.30
2019-04-19T03:15:44.410Z,5.20
2019-04-19T03:18:14.730Z,5.63
2019-04-19T03:20:30.005Z,5.17
2019-04-19T03:23:03.190Z,6.07
2019-04-19T03:25:29.079Z,5.57
2019-04-19T03:27:59.754Z,5.53
2019-04-19T03:30:35.614Z,5.90
2019-04-19T03:33:17.068Z,5.27
2019-04-19T03:35:41.356Z,5.47
2019-04-19T03:38:04.959Z,5.00
2019-04-19T03:40:28.680Z,5.37
2019-04-19T03:42:56.866Z,5.90
2019-04-19T03:45:28.731Z,5.40
2019-04-19T03:48:04.697Z,6.30
2019-04-19T03:50:28.930Z,5.90
2019-04-19T03:52:53.715Z,5.20
2019-04-19T03:55:24.350Z,5.80
2019-04-19T03:57:47.706Z,5.57
2019-04-19T04:00:08.920Z,6.30
2019-04-19T04:02:41.055Z,5.72
2019-04-19T04:05:09.707Z,5.57
2019-04-19T04:07:35.555Z,6.50
2019-04-19T04:10:06.690Z,6.10
2019-04-19T04:12:48.554Z,5.50
2019-04-19T04:15:45.846Z,5.50
2019-04-19T04:17:54.856Z,6.70
2019-04-19T04:20:22.226Z,5.13
2019-04-19T04:22:50.062Z,5.93
2019-04-19T04:25:25.032Z,5.30
2019-04-19T04:27:59.562Z,5.67
2019-04-19T04:30:25.909Z,5.77
2019-04-19T04:32:57.195Z,5.20
2019-04-19T04:35:30.694Z,5.53
2019-04-19T04:37:57.426Z,6.13
2019-04-19T04:40:12.982Z,5.70
2019-04-19T04:42:57.043Z,5.63
2019-04-19T04:45:27.888Z,6.37
2019-04-19T04:48:02.664Z,6.30
2019-04-19T04:50:55.094Z,4.87
2019-04-19T04:52:58.067Z,5.60
2019-04-19T04:55:28.356Z,6.00
2019-04-19T04:58:00.054Z,5.50
2019-04-19T05:00:30.773Z,5.37
2019-04-19T05:03:13.088Z,5.93
2019-04-19T05:05:38.423Z,5.90
2019-04-19T05:08:14.258Z,5.63
2019-04-19T05:10:35.624Z,4.70
2019-04-19T05:15:37.348Z,5.60
2019-04-19T05:18:12.838Z,5.10
2019-04-19T05:20:31.951Z,5.90
2019-04-19T05:23:02.714Z,5.23
2019-04-19T05:28:01.584Z,5.93
2019-04-19T05:30:13.476Z,5.57
2019-04-19T05:32:44.287Z,5.10
2019-04-19T05:35:24.203Z,4.80
2019-04-19T05:38:03.571Z,5.63
2019-04-19T05:40:42.361Z,5.40
2019-04-19T05:43:46.454Z,5.13
2019-04-19T05:45:59.185Z,5.13
2019-04-19T05:48:16.631Z,4.67
2019-04-19T05:50:56.195Z,4.63
2019-04-19T05:53:14.335Z,5.47
2019-04-19T05:55:30.391Z,5.50
2019-04-19T05:58:13.401Z,5.00
2019-04-19T06:00:43.470Z,5.43
2019-04-19T06:03:09.260Z,4.60
2019-04-19T06:05:58.354Z,4.63
2019-04-19T06:08:05.411Z,4.97
2019-04-19T06:10:27.506Z,4.83
2019-04-19T06:13:01.326Z,4.50
2019-04-19T06:15:43.413Z,4.50
2019-04-19T06:18:09.594Z,4.90
2019-04-19T06:20:42.374Z,5.07
2019-04-19T06:23:12.396Z,5.67
2019-04-19T06:25:46.125Z,5.30
2019-04-19T06:30:41.682Z,5.10
2019-04-19T06:33:07.507Z,4.43
2019-04-19T06:35:31.626Z,4.40
2019-04-19T06:37:48.066Z,4.50
2019-04-19T06:40:22.684Z,4.90
2019-04-19T06:42:54.109Z,4.30
2019-04-19T06:45:31.484Z,4.17
2019-04-19T06:47:49.706Z,4.43
2019-04-19T06:50:17.070Z,4.63
2019-04-19T06:52:41.602Z,4.50
2019-04-19T06:55:16.565Z,4.60
2019-04-19T06:57:51.442Z,4.40
2019-04-19T07:00:20.612Z,3.90
2019-04-19T07:02:37.784Z,4.23
2019-04-19T07:05:18.638Z,4.47
2019-04-19T07:08:03.234Z,4.03
2019-04-19T07:10:37.078Z,4.30
2019-04-19T07:12:56.218Z,5.03
2019-04-19T07:15:38.573Z,4.33
2019-04-19T07:17:50.061Z,4.40
2019-04-19T07:20:19.997Z,4.60
2019-04-19T07:22:46.761Z,4.27
2019-04-19T07:25:29.415Z,4.37
2019-04-19T07:27:40.308Z,3.90
2019-04-19T07:30:02.207Z,4.43
2019-04-19T07:32:37.425Z,4.60
2019-04-19T07:35:11.711Z,5.20
2019-04-19T07:37:40.347Z,5.20
2019-04-19T07:40:19.098Z,5.13
2019-04-19T07:42:41.978Z,4.43
2019-04-19T07:45:00.019Z,4.40
2019-04-19T07:47:37.872Z,4.60
2019-04-19T07:50:07.579Z,5.30
2019-04-19T07:52:30.275Z,4.60
2019-04-19T07:54:57.716Z,5.97
2019-04-19T07:58:15.935Z,4.90
2019-04-19T08:00:19.047Z,4.50
2019-04-19T08:02:49.889Z,4.40
2019-04-19T08:05:15.975Z,5.13
2019-04-19T08:08:04.261Z,4.37
2019-04-19T08:10:10.773Z,4.27
2019-04-19T08:12:36.851Z,4.63
2019-04-19T08:15:15.973Z,4.53
2019-04-19T08:17:51.263Z,5.13
2019-04-19T08:29:49.152Z,3.97
2019-04-19T08:32:09.187Z,4.53
2019-04-19T08:34:38.223Z,4.27
2019-04-19T08:37:15.004Z,4.00
2019-04-19T08:39:49.813Z,4.03
2019-04-19T08:42:20.535Z,3.67
2019-04-19T08:44:43.076Z,4.13
2019-04-19T08:47:22.950Z,4.20
2019-04-19T08:49:48.167Z,4.20
2019-04-19T08:52:27.355Z,3.60
2019-04-19T08:55:11.138Z,3.90
2019-04-19T08:57:25.187Z,4.20
2019-04-19T09:00:12.462Z,4.17
2019-04-19T09:02:35.607Z,3.70
2019-04-19T09:05:07.382Z,4.13
2019-04-19T09:07:47.345Z,4.47
2019-04-19T09:12:31.293Z,3.90
2019-04-19T09:15:02.431Z,3.87
2019-04-19T09:17:43.263Z,3.60
2019-04-19T09:22:27.641Z,3.80
2019-04-19T09:24:50.302Z,3.97
2019-04-19T09:27:32.808Z,3.73
2019-04-19T09:29:58.882Z,3.80
2019-04-19T09:32:13.631Z,3.43
2019-04-19T09:34:43.524Z,3.53
2019-04-19T09:37:15.877Z,3.60
2019-04-19T09:39:47.608Z,3.70
2019-04-19T09:42:13.848Z,3.23
2019-04-19T09:44:41.021Z,3.20
2019-04-19T09:47:03.670Z,3.10
2019-04-19T09:49:44.149Z,3.40
2019-04-19T09:52:20.522Z,3.40
2019-04-19T09:54:53.905Z,3.53
2019-04-19T09:57:11.156Z,3.20
2019-04-19T09:59:31.193Z,3.10
2019-04-19T10:01:57.943Z,2.90
2019-04-19T10:04:23.360Z,3.53
2019-04-19T10:06:51.119Z,3.20
2019-04-19T10:09:22.054Z,3.23
2019-04-19T10:11:48.581Z,3.13
2019-04-19T10:14:17.148Z,3.40
2019-04-19T10:16:46.839Z,3.30
2019-04-19T10:19:14.751Z,3.03
2019-04-19T10:21:43.781Z,2.90
2019-04-19T10:24:14.786Z,3.30
2019-04-19T10:26:48.380Z,3.17
2019-04-19T10:29:24.571Z,3.20
2019-04-19T10:31:50.308Z,2.90
2019-04-19T10:34:16.528Z,2.70
2019-04-19T10:36:46.251Z,2.90
2019-04-19T10:39:19.748Z,3.10
2019-04-19T10:41:48.014Z,2.60
2019-04-19T10:44:18.633Z,3.13
2019-04-19T10:46:44.840Z,3.00
2019-04-19T10:49:17.361Z,2.70
2019-04-19T10:51:46.589Z,2.80
2019-04-19T10:54:14.896Z,3.00
2019-04-19T10:56:56.461Z,2.57
2019-04-19T10:59:24.694Z,2.33
2019-04-19T11:01:52.200Z,2.60
2019-04-19T11:04:20.693Z,2.87
2019-04-19T11:06:49.312Z,2.63
2019-04-19T11:09:16.666Z,3.13
2019-04-19T11:11:43.930Z,2.80
2019-04-19T11:14:12.229Z,3.40
2019-04-19T11:16:39.625Z,2.87
2019-04-19T11:19:16.392Z,2.90
2019-04-19T11:21:35.869Z,2.90
2019-04-19T11:24:03.183Z,2.70
2019-04-19T11:26:30.607Z,3.10
2019-04-19T11:28:58.945Z,2.50
2019-04-19T11:31:44.062Z,2.87
2019-04-19T11:34:13.112Z,2.73
2019-04-19T11:36:41.577Z,3.23
2019-04-19T11:39:10.923Z,3.00
2019-04-19T11:41:38.914Z,2.43
2019-04-19T11:44:13.957Z,2.20
2019-04-19T11:46:36.033Z,2.40
2019-04-19T11:49:03.877Z,2.57
2019-04-19T11:51:32.114Z,2.10
2019-04-19T11:54:00.643Z,2.20
2019-04-19T11:56:36.512Z,2.50
2019-04-19T11:59:19.504Z,2.90
2019-04-19T12:02:00.106Z,2.70
2019-04-19T12:04:28.198Z,2.53
2019-04-19T12:06:56.499Z,2.87
2019-04-19T12:09:24.805Z,3.00
2019-04-19T12:11:52.210Z,2.67
2019-04-19T12:14:19.655Z,2.80
2019-04-19T12:16:47.494Z,2.53
2019-04-19T12:19:16.131Z,2.60
2019-04-19T12:21:43.466Z,2.43
2019-04-19T12:24:10.916Z,2.67
2019-04-19T12:26:38.265Z,2.90
2019-04-19T12:29:07.189Z,2.50
2019-04-19T12:31:34.653Z,3.10
2019-04-19T12:34:01.903Z,2.87
2019-04-19T12:36:29.175Z,2.97
2019-04-19T12:38:56.705Z,3.10
2019-04-19T12:41:24.074Z,3.30
2019-04-19T12:43:51.936Z,3.10
2019-04-19T12:46:19.259Z,2.93
2019-04-19T12:48:47.828Z,2.50
2019-04-19T12:51:16.316Z,2.70
2019-04-19T12:53:45.702Z,2.70
2019-04-19T12:56:13.832Z,2.27
2019-04-19T12:58:41.921Z,2.67
2019-04-19T13:01:14.208Z,2.97
2019-04-19T13:03:44.469Z,3.23
2019-04-19T13:06:13.545Z,2.90
2019-04-19T13:08:41.174Z,3.90
2019-04-19T13:11:09.148Z,2.77
2019-04-19T13:13:36.435Z,2.73
2019-04-19T13:16:04.024Z,3.00
2019-04-19T13:18:32.040Z,2.90
2019-04-19T13:20:59.819Z,2.93
2019-04-19T13:23:28.320Z,2.73
2019-04-19T13:25:55.634Z,2.87
2019-04-19T13:28:23.721Z,2.60
2019-04-19T13:30:56.508Z,2.17
2019-04-19T13:33:20.742Z,2.30
2019-04-19T13:35:48.876Z,3.33
2019-04-19T13:38:21.166Z,2.73
2019-04-19T13:41:05.012Z,2.63
2019-04-19T13:43:33.042Z,2.50
2019-04-19T13:46:01.038Z,2.90
2019-04-19T13:48:28.410Z,2.47
2019-04-19T13:50:56.277Z,2.60
2019-04-19T13:53:24.589Z,2.47
2019-04-19T13:55:52.712Z,2.63
2019-04-19T13:58:20.082Z,3.10
2019-04-19T14:00:49.332Z,2.87
2019-04-19T14:03:17.236Z,2.80
2019-04-19T14:05:45.802Z,2.57
2019-04-19T14:08:13.333Z,2.80
2019-04-19T14:10:41.347Z,2.77
2019-04-19T14:13:09.379Z,3.50
2019-04-19T14:15:38.558Z,4.13
2019-04-19T14:18:06.705Z,2.47
2019-04-19T14:20:40.404Z,2.40
2019-04-19T14:23:03.538Z,2.63
2019-04-19T14:25:31.569Z,2.50
2019-04-19T14:27:59.708Z,2.57
2019-04-19T14:30:27.116Z,2.70
2019-04-19T14:32:54.375Z,2.83
2019-04-19T14:35:21.790Z,2.40
2019-04-19T14:37:50.061Z,2.20
2019-04-19T14:40:17.648Z,2.53
2019-04-19T14:42:44.873Z,2.50
2019-04-19T14:45:12.566Z,2.60
2019-04-19T14:47:42.427Z,2.60
2019-04-19T14:50:10.679Z,2.33
2019-04-19T14:52:38.050Z,2.60
2019-04-19T14:55:05.750Z,2.50
2019-04-19T14:57:33.000Z,3.10
2019-04-19T15:00:00.869Z,2.73
2019-04-19T15:02:36.639Z,2.27
2019-04-19T15:05:07.679Z,2.67
2019-04-19T15:07:35.029Z,2.50
2019-04-19T15:10:03.736Z,2.07
2019-04-19T15:12:31.176Z,2.50
2019-04-19T15:14:59.693Z,2.37
2019-04-19T15:17:27.183Z,2.67
2019-04-19T15:19:54.940Z,2.40
2019-04-19T15:22:22.286Z,2.60
2019-04-19T15:24:50.865Z,2.70
2019-04-19T15:27:19.133Z,2.23
2019-04-19T15:29:47.597Z,2.33
2019-04-19T15:32:14.987Z,2.60
2019-04-19T15:34:43.382Z,2.60
2019-04-19T15:37:11.790Z,2.23
2019-04-19T15:39:39.895Z,2.20
2019-04-19T15:42:08.584Z,2.20
2019-04-19T15:44:36.950Z,3.03
2019-04-19T15:47:04.750Z,2.00
2019-04-19T15:49:32.132Z,2.13
2019-04-19T15:51:59.785Z,2.03
2019-04-19T15:54:28.062Z,1.93
2019-04-19T15:56:56.287Z,2.33
2019-04-19T15:59:25.587Z,2.37
2019-04-19T16:01:54.309Z,2.40
2019-04-19T16:04:35.142Z,2.33
2019-04-19T16:07:16.430Z,2.10
2019-04-19T16:09:53.747Z,2.33
2019-04-19T16:12:29.285Z,2.07
2019-04-19T16:14:57.742Z,2.27
2019-04-19T16:17:25.233Z,2.17
2019-04-19T16:19:53.437Z,2.10
2019-04-19T16:22:20.744Z,2.67
2019-04-19T16:24:49.223Z,2.50
2019-04-19T16:27:17.562Z,2.43
2019-04-19T16:29:49.306Z,2.20
2019-04-19T16:32:14.734Z,1.87
2019-04-19T16:34:43.139Z,2.23
2019-04-19T16:37:10.475Z,2.17
2019-04-19T16:39:37.726Z,2.40
2019-04-19T16:42:05.115Z,2.40
2019-04-19T16:44:32.427Z,2.27
2019-04-19T16:46:59.802Z,2.33
2019-04-19T16:49:27.072Z,2.20
2019-04-19T16:51:57.546Z,2.47
2019-04-19T16:54:23.296Z,2.30
2019-04-19T16:56:52.541Z,2.70
2019-04-19T16:59:19.798Z,2.07
2019-04-19T17:01:47.056Z,1.90
2019-04-19T17:04:15.542Z,2.50
2019-04-19T17:06:42.936Z,1.90
2019-04-19T17:09:11.276Z,1.97
2019-04-19T17:11:39.625Z,1.90
2019-04-19T17:14:07.259Z,2.00
2019-04-19T17:16:51.099Z,2.00
2019-04-19T17:19:24.556Z,2.20
2019-04-19T17:22:00.456Z,2.30
2019-04-19T17:24:20.960Z,2.37
2019-04-19T17:26:49.012Z,1.73
2019-04-19T17:29:17.040Z,2.33
2019-04-19T17:31:44.588Z,2.00
2019-04-19T17:34:12.053Z,2.30
2019-04-19T17:36:40.111Z,2.10
2019-04-19T17:39:08.779Z,2.00
2019-04-19T17:41:36.756Z,1.97
2019-04-19T17:44:05.799Z,2.30
2019-04-19T17:46:33.114Z,2.20
2019-04-19T17:49:00.370Z,2.30
2019-04-19T17:51:27.640Z,1.80
2019-04-19T17:53:56.219Z,2.47
2019-04-19T17:56:23.745Z,2.47
2019-04-19T17:58:52.082Z,1.87
2019-04-19T18:01:20.249Z,2.10
2019-04-19T18:03:47.577Z,2.90
2019-04-19T18:06:16.143Z,2.10
2019-04-19T18:08:45.797Z,2.40
2019-04-19T18:11:14.095Z,2.20
2019-04-19T18:13:41.486Z,1.90
2019-04-19T18:16:09.049Z,1.97
2019-04-19T18:18:42.096Z,2.20
2019-04-19T18:21:05.705Z,2.33
2019-04-19T18:23:43.108Z,1.90
2019-04-19T18:26:03.233Z,2.27
2019-04-19T18:28:37.569Z,2.30
2019-04-19T18:31:01.672Z,2.30
2019-04-19T18:33:33.549Z,3.00
2019-04-19T18:36:06.628Z,2.10
2019-04-19T18:38:31.431Z,2.13
2019-04-19T18:40:59.113Z,2.60
2019-04-19T18:43:37.660Z,2.33
2019-04-19T18:45:55.345Z,2.27
2019-04-19T18:48:23.800Z,2.20
2019-04-19T18:50:52.334Z,2.67
2019-04-19T18:53:30.227Z,2.20
2019-04-19T18:55:51.785Z,2.33
2019-04-19T18:58:21.291Z,2.00
2019-04-19T19:00:50.253Z,2.77
2019-04-19T19:03:15.999Z,2.30
2019-04-19T19:05:47.877Z,2.93
2019-04-19T19:08:20.406Z,2.23
2019-04-19T19:10:47.464Z,2.00
2019-04-19T19:13:10.434Z,2.20
2019-04-19T19:15:43.307Z,2.40
2019-04-19T19:18:07.579Z,2.40
2019-04-19T19:20:36.700Z,2.20
2019-04-19T19:23:15.382Z,2.10
2019-04-19T19:25:43.644Z,2.37
2019-04-19T19:28:04.155Z,2.77
2019-04-19T19:30:33.107Z,2.33
2019-04-19T19:33:09.662Z,2.30
2019-04-19T19:35:30.542Z,2.37
2019-04-19T19:38:02.344Z,2.50
2019-04-19T19:40:37.600Z,2.20
2019-04-19T19:43:17.899Z,2.60
2019-04-19T19:45:42.406Z,2.30
2019-04-19T19:48:17.794Z,2.40
2019-04-19T19:50:51.835Z,2.90
2019-04-19T19:53:25.592Z,2.97
2019-04-19T19:55:46.244Z,2.43
2019-04-19T19:58:00.532Z,2.50
2019-04-19T20:00:40.801Z,2.47
2019-04-19T20:03:06.927Z,2.50
2019-04-19T20:05:30.429Z,2.77
2019-04-19T20:07:53.606Z,2.80
2019-04-19T20:10:21.335Z,2.40
2019-04-19T20:12:55.275Z,2.53
2019-04-19T20:15:18.602Z,2.37
2019-04-19T20:17:50.976Z,2.37
2019-04-19T20:20:16.464Z,2.17
2019-04-19T20:22:45.896Z,2.67
2019-04-19T20:25:25.998Z,2.40
2019-04-19T20:27:47.025Z,2.50
2019-04-19T20:30:11.739Z,2.67
2019-04-19T20:32:39.172Z,2.40
2019-04-19T20:35:15.178Z,2.57
2019-04-19T20:37:35.693Z,2.27
2019-04-19T20:40:08.757Z,2.10
2019-04-19T20:43:02.103Z,2.70
2019-04-19T20:45:07.799Z,2.90
2019-04-19T20:47:33.011Z,2.47
2019-04-19T20:50:12.822Z,2.77
2019-04-19T20:52:43.853Z,2.77
2019-04-19T20:55:24.154Z,2.90
2019-04-19T20:57:46.175Z,2.40
2019-04-19T21:00:03.225Z,2.83
2019-04-19T21:02:35.867Z,2.40
2019-04-19T21:05:02.991Z,2.60
2019-04-19T21:07:33.163Z,3.13
2019-04-19T21:10:03.087Z,2.40
2019-04-19T21:12:29.692Z,2.37
2019-04-19T21:15:09.266Z,2.87
2019-04-19T21:17:27.268Z,2.70
2019-04-19T21:19:54.037Z,2.53
2019-04-19T21:22:27.057Z,2.60
2019-04-19T21:25:02.068Z,2.90
2019-04-19T21:27:25.784Z,2.33
2019-04-19T21:29:48.271Z,2.63
2019-04-19T21:32:20.861Z,2.70
2019-04-19T21:34:45.869Z,2.80
2019-04-19T21:37:15.149Z,2.60
2019-04-19T21:39:44.906Z,2.53
2019-04-19T21:42:11.733Z,2.90
2019-04-19T21:44:39.077Z,2.97
2019-04-19T21:47:09.393Z,2.83
2019-04-19T21:49:35.310Z,3.07
2019-04-19T21:52:05.495Z,2.60
2019-04-19T21:54:32.575Z,2.50
2019-04-19T21:57:00.483Z,2.50
2019-04-19T21:59:32.994Z,2.57
2019-04-19T22:01:57.201Z,2.67
2019-04-19T22:04:25.471Z,3.23
2019-04-19T22:06:54.762Z,3.20
2019-04-19T22:09:23.688Z,2.93
2019-04-19T22:11:52.109Z,2.67
2019-04-19T22:14:23.997Z,3.30
2019-04-19T22:16:48.656Z,2.97
2019-04-19T22:19:22.448Z,3.20
2019-04-19T22:21:46.841Z,3.47
2019-04-19T22:24:16.675Z,4.40
2019-04-19T22:26:47.582Z,3.30
2019-04-19T22:29:11.836Z,3.80
2019-04-19T22:31:39.479Z,3.70
2019-04-19T22:34:06.825Z,3.50
2019-04-19T22:36:37.618Z,3.57
2019-04-19T22:39:05.359Z,3.37
2019-04-19T22:41:32.930Z,3.47
2019-04-19T22:44:00.620Z,3.60
2019-04-19T22:46:31.177Z,4.03
2019-04-19T22:49:02.067Z,3.87
2019-04-19T22:51:26.817Z,3.77
2019-04-19T22:53:54.653Z,4.70
2019-04-19T22:56:29.479Z,3.83
2019-04-19T22:58:51.659Z,3.63
2019-04-19T23:01:23.723Z,3.67
2019-04-19T23:03:50.543Z,3.97
2019-04-19T23:06:21.890Z,4.27
2019-04-19T23:08:46.894Z,4.03
2019-04-19T23:11:15.283Z,4.37
2019-04-19T23:13:43.673Z,4.10
2019-04-19T23:16:11.643Z,3.80
2019-04-19T23:18:39.250Z,3.67
2019-04-19T23:21:12.645Z,4.80
2019-04-19T23:23:36.414Z,4.20
2019-04-19T23:26:17.368Z,5.33
2019-04-19T23:28:36.684Z,4.80
2019-04-19T23:31:05.475Z,4.47
2019-04-19T23:33:30.724Z,4.67
2019-04-19T23:35:57.986Z,4.47
2019-04-19T23:38:27.709Z,4.60
2019-04-19T23:40:55.211Z,5.13
2019-04-19T23:43:29.502Z,4.83
2019-04-19T23:45:52.951Z,5.17
2019-04-19T23:48:25.027Z,4.60
2019-04-19T23:50:50.393Z,4.10
2019-04-19T23:53:18.638Z,4.80
2019-04-19T23:55:46.662Z,4.90
2019-04-19T23:58:23.110Z,4.67
